Time;durP1;ratioP1;P1;durP2;ratioP2;P2;SDS_P1;SDS_P2;PMS_P1;PMS_P2;Temp;Humidity;BMP_temperature;BMP_pressure;BME280_temperature;BME280_humidity;BME280_pressure;Samples;Min_cycle;Max_cycle;Signal;HPM_P1;HPM_P2
2022/10/11 00:01:17;;;;;;;7.40;3.20;;;;;;;5.65;100.00;102357.88;5061284;28;20363;-68
2022/10/11 00:03:42;;;;;;;6.53;3.22;;;;;;;5.60;100.00;102357.09;5060218;28;20529;-69
2022/10/11 00:06:08;;;;;;;10.32;4.45;;;;;;;5.57;100.00;102359.78;5039923;28;20112;-67
2022/10/11 00:08:34;;;;;;;9.00;3.40;;;;;;;5.56;100.00;102356.25;5058535;28;20043;-68
2022/10/11 00:11:02;;;;;;;7.05;2.80;;;;;;;5.14;100.00;102361.41;5056383;28;20032;-68
2022/10/11 00:13:29;;;;;;;4.85;2.60;;;;;;;5.17;100.00;102360.47;5060488;28;20572;-67
2022/10/11 00:15:54;;;;;;;4.60;2.53;;;;;;;5.19;100.00;102361.34;5060126;28;20043;-67
2022/10/11 00:18:20;;;;;;;3.90;2.58;;;;;;;5.24;100.00;102369.19;5059510;28;20807;-69
2022/10/11 00:20:45;;;;;;;14.93;4.90;;;;;;;5.41;100.00;102370.63;5039828;28;20036;-67
2022/10/11 00:23:11;;;;;;;13.32;4.90;;;;;;;5.37;100.00;102371.63;5049442;28;20060;-68
2022/10/11 00:25:36;;;;;;;13.38;5.10;;;;;;;5.37;100.00;102368.06;5051200;28;20598;-68
2022/10/11 00:28:02;;;;;;;15.45;5.72;;;;;;;5.42;100.00;102371.50;5035951;28;20049;-67
2022/10/11 00:30:27;;;;;;;19.00;5.35;;;;;;;5.46;100.00;102370.56;5045689;28;20044;-68
2022/10/11 00:32:53;;;;;;;17.48;5.38;;;;;;;5.43;100.00;102374.16;5063240;28;20043;-68
2022/10/11 00:35:19;;;;;;;9.68;4.90;;;;;;;5.37;100.00;102376.00;5041137;28;20039;-67
2022/10/11 00:37:44;;;;;;;12.95;5.13;;;;;;;5.23;100.00;102381.53;5059713;28;20029;-68
2022/10/11 00:40:15;;;;;;;11.20;3.72;;;;;;;5.14;100.00;102373.75;5052532;28;20045;-68
2022/10/11 00:42:40;;;;;;;3.50;2.45;;;;;;;4.83;100.00;102373.38;5058900;28;20040;-68
2022/10/11 00:45:25;;;;;;;13.35;3.17;;;;;;;4.96;100.00;102371.41;5057691;28;20035;-67
2022/10/11 00:47:51;;;;;;;9.80;4.35;;;;;;;5.09;100.00;102372.97;5052541;28;20078;-67
2022/10/11 00:50:19;;;;;;;11.82;4.80;;;;;;;5.20;100.00;102379.81;5059382;28;20093;-69
2022/10/11 00:52:52;;;;;;;15.88;6.57;;;;;;;5.29;100.00;102377.94;5059133;28;20040;-69
2022/10/11 00:55:23;;;;;;;12.10;4.75;;;;;;;5.26;100.00;102378.84;5041095;28;20051;-69
2022/10/11 00:57:51;;;;;;;21.42;7.25;;;;;;;5.26;100.00;102384.13;5054107;28;20036;-69
2022/10/11 01:00:18;;;;;;;14.50;5.57;;;;;;;5.21;100.00;102383.31;5050529;28;20037;-69
2022/10/11 01:02:44;;;;;;;14.90;4.60;;;;;;;5.01;100.00;102388.94;5053554;28;20106;-69
2022/10/11 01:05:13;;;;;;;8.77;4.30;;;;;;;4.85;100.00;102390.94;5037390;28;20831;-68
2022/10/11 01:07:40;;;;;;;13.32;4.63;;;;;;;4.97;100.00;102395.19;5058901;28;20028;-69
2022/10/11 01:10:05;;;;;;;9.10;4.45;;;;;;;5.02;100.00;102395.09;5041187;28;20115;-69
2022/10/11 01:12:31;;;;;;;15.65;4.95;;;;;;;4.91;100.00;102401.41;5057871;28;20025;-69
2022/10/11 01:15:04;;;;;;;14.23;4.53;;;;;;;5.06;100.00;102391.50;5036356;28;20772;-69
2022/10/11 01:17:30;;;;;;;15.90;5.95;;;;;;;5.15;100.00;102396.66;5055733;28;20041;-69
2022/10/11 01:20:33;;;;;;;9.70;5.70;;;;;;;5.11;100.00;102397.59;5061112;28;20037;-69
2022/10/11 01:23:04;;;;;;;;;;;;;;;5.15;100.00;102401.94;5034328;28;20041;-69
2022/10/11 01:26:06;;;;;;;9.13;5.25;;;;;;;5.05;100.00;102400.34;5064146;28;19920;-69
2022/10/11 01:29:06;;;;;;;14.05;5.70;;;;;;;5.08;100.00;102402.94;5056471;28;20048;-69
2022/10/11 01:31:48;;;;;;;17.40;5.75;;;;;;;5.01;100.00;102403.91;5061700;28;20043;-68
2022/10/11 01:34:25;;;;;;;12.35;5.25;;;;;;;4.86;100.00;102405.00;5058863;28;20231;-69
2022/10/11 01:37:06;;;;;;;8.95;4.10;;;;;;;4.86;100.00;102407.66;5063000;28;20044;-69
2022/10/11 01:39:44;;;;;;;9.45;4.50;;;;;;;4.91;100.00;102406.69;5067090;28;20102;-69
2022/10/11 01:42:12;;;;;;;12.95;4.65;;;;;;;4.89;100.00;102404.97;5050172;28;20052;-69
2022/10/11 01:44:40;;;;;;;10.98;5.35;;;;;;;5.07;100.00;102412.66;5062116;28;20059;-69
2022/10/11 01:47:06;;;;;;;9.82;5.40;;;;;;;5.02;100.00;102414.50;5057124;28;20033;-68
2022/10/11 01:49:32;;;;;;;9.23;5.00;;;;;;;5.05;100.00;102417.06;5043908;28;20024;-68
2022/10/11 01:52:03;;;;;;;6.63;3.85;;;;;;;4.92;100.00;102413.75;5060790;28;20496;-68
2022/10/11 01:55:03;;;;;;;5.82;3.65;;;;;;;4.74;100.00;102407.84;5043686;28;20032;-69
2022/10/11 01:57:37;;;;;;;5.95;2.85;;;;;;;4.43;100.00;102417.94;5058436;28;20037;-68
2022/10/11 02:00:05;;;;;;;3.88;2.58;;;;;;;4.28;100.00;102414.59;5059817;28;20037;-67
2022/10/11 02:02:41;;;;;;;4.18;2.58;;;;;;;4.38;100.00;102416.22;5046020;28;20072;-69
2022/10/11 02:05:15;;;;;;;5.90;2.35;;;;;;;4.42;100.00;102417.06;5043823;28;20219;-69
2022/10/11 02:07:54;;;;;;;5.30;3.22;;;;;;;4.46;100.00;102424.03;5059919;28;20089;-68
2022/10/11 02:10:30;;;;;;;6.03;3.65;;;;;;;4.61;100.00;102425.63;5058094;28;20028;-70
2022/10/11 02:13:10;;;;;;;9.30;3.75;;;;;;;4.70;100.00;102425.50;5062477;28;20203;-69
2022/10/11 02:15:39;;;;;;;9.98;5.03;;;;;;;4.73;100.00;102425.47;5056628;28;20083;-68
2022/10/11 02:18:10;;;;;;;11.35;4.60;;;;;;;4.65;100.00;102422.91;5060060;28;20157;-69
2022/10/11 02:20:40;;;;;;;7.07;4.30;;;;;;;4.67;100.00;102423.78;5061497;28;20040;-69
2022/10/11 02:23:12;;;;;;;10.13;4.80;;;;;;;4.66;100.00;102426.44;5059768;28;20885;-69
2022/10/11 02:25:37;;;;;;;9.27;4.63;;;;;;;4.62;100.00;102422.97;5057909;28;20045;-69
2022/10/11 02:28:10;;;;;;;8.88;4.60;;;;;;;4.50;100.00;102427.53;5061685;28;20685;-69
2022/10/11 02:30:37;;;;;;;15.38;6.35;;;;;;;4.53;100.00;102428.38;5060506;28;20062;-69
2022/10/11 02:33:06;;;;;;;14.57;3.20;;;;;;;4.12;100.00;102437.66;5043537;28;20033;-69
2022/10/11 02:35:37;;;;;;;5.18;2.60;;;;;;;4.08;100.00;102433.31;5062393;28;20036;-69
2022/10/11 02:38:34;;;;;;;6.25;3.42;;;;;;;4.18;100.00;102436.72;5059763;28;20098;-68
2022/10/11 02:41:10;;;;;;;10.88;5.68;;;;;;;4.40;100.00;102425.00;5035723;28;20063;-69
2022/10/11 02:43:40;;;;;;;10.93;6.05;;;;;;;4.45;100.00;102432.88;5051528;28;20044;-68
2022/10/11 02:46:08;;;;;;;13.82;5.72;;;;;;;4.49;100.00;102439.00;5061764;28;20062;-68
2022/10/11 02:48:34;;;;;;;16.00;5.60;;;;;;;4.39;100.00;102440.88;5059833;28;20104;-69
2022/10/11 02:51:01;;;;;;;10.48;5.32;;;;;;;4.39;100.00;102433.81;5061788;28;20808;-69
2022/10/11 02:53:27;;;;;;;10.32;5.30;;;;;;;4.38;100.00;102437.34;5054650;28;20102;-68
2022/10/11 02:55:53;;;;;;;15.65;4.78;;;;;;;4.43;100.00;102426.75;5059177;28;20144;-69
2022/10/11 02:58:19;;;;;;;12.10;4.85;;;;;;;4.43;100.00;102432.03;5057883;28;20091;-69
2022/10/11 03:00:45;;;;;;;11.07;4.75;;;;;;;4.47;100.00;102435.47;5050502;28;20615;-69
2022/10/11 03:03:10;;;;;;;9.48;5.00;;;;;;;4.44;100.00;102439.06;5055506;28;20040;-69
2022/10/11 03:05:39;;;;;;;12.07;5.05;;;;;;;4.45;100.00;102440.78;5059619;28;20429;-69
2022/10/11 03:08:11;;;;;;;12.05;5.80;;;;;;;4.50;100.00;102448.66;5054749;28;20437;-69
2022/10/11 03:10:37;;;;;;;8.93;4.95;;;;;;;4.36;100.00;102449.69;5052387;28;20542;-69
2022/10/11 03:13:03;;;;;;;8.05;3.80;;;;;;;4.33;100.00;102452.38;5053330;28;20036;-68
2022/10/11 03:15:29;;;;;;;12.93;4.20;;;;;;;4.33;100.00;102454.16;5055572;28;20276;-68
2022/10/11 03:17:55;;;;;;;13.27;4.95;;;;;;;4.35;100.00;102449.72;5055886;28;20108;-69
2022/10/11 03:20:20;;;;;;;15.30;5.55;;;;;;;4.41;100.00;102449.63;5060942;28;20111;-69
2022/10/11 03:22:46;;;;;;;12.63;5.65;;;;;;;4.48;100.00;102451.34;5057039;28;20043;-69
2022/10/11 03:25:12;;;;;;;12.38;5.85;;;;;;;4.49;100.00;102452.19;5060879;28;20059;-68
2022/10/11 03:27:37;;;;;;;14.40;6.15;;;;;;;4.44;100.00;102451.38;5049920;28;20222;-69
2022/10/11 03:30:04;;;;;;;11.23;6.05;;;;;;;4.50;100.00;102446.88;5041866;28;20043;-68
2022/10/11 03:32:30;;;;;;;19.45;5.47;;;;;;;4.28;100.00;102455.97;5054413;28;20083;-70
2022/10/11 03:34:55;;;;;;;10.18;5.60;;;;;;;4.11;100.00;102451.72;5060263;28;20092;-69
2022/10/11 03:37:21;;;;;;;21.38;5.43;;;;;;;4.00;100.00;102458.03;5053250;28;20036;-70
2022/10/11 03:39:46;;;;;;;10.57;4.90;;;;;;;4.11;100.00;102461.41;5053562;28;20029;-69
2022/10/11 03:42:12;;;;;;;17.85;4.40;;;;;;;4.09;100.00;102469.38;5042052;28;20037;-69
2022/10/11 03:44:38;;;;;;;7.95;4.25;;;;;;;4.04;100.00;102467.66;5054501;28;20044;-69
2022/10/11 03:47:04;;;;;;;6.43;4.20;;;;;;;4.13;100.00;102471.09;5036538;28;20033;-69
2022/10/11 03:49:30;;;;;;;8.43;5.03;;;;;;;4.17;100.00;102469.28;5058932;28;20051;-68
2022/10/11 03:51:55;;;;;;;9.48;5.07;;;;;;;4.30;100.00;102478.81;5046869;28;20037;-69
2022/10/11 03:54:21;;;;;;;15.60;5.93;;;;;;;4.31;100.00;102474.41;5060241;28;20037;-69
2022/10/11 03:56:47;;;;;;;10.13;5.03;;;;;;;4.18;100.00;102480.72;5039446;28;20051;-69
2022/10/11 03:59:12;;;;;;;4.50;3.38;;;;;;;3.94;100.00;102489.75;5059493;28;20113;-69
2022/10/11 04:01:37;;;;;;;9.07;4.25;;;;;;;4.04;100.00;102486.13;5060381;28;20036;-69
2022/10/11 04:04:04;;;;;;;15.70;6.72;;;;;;;4.25;100.00;102483.28;5054342;28;20036;-68
2022/10/11 04:06:30;;;;;;;12.40;5.05;;;;;;;4.24;100.00;102486.81;5024923;28;20104;-70
2022/10/11 04:08:55;;;;;;;15.07;6.30;;;;;;;4.33;100.00;102485.84;5058882;28;20082;-69
2022/10/11 04:11:21;;;;;;;9.60;4.85;;;;;;;4.26;100.00;102494.69;5060098;28;20639;-68
2022/10/11 04:13:46;;;;;;;8.63;4.10;;;;;;;4.19;100.00;102482.47;5060159;28;20044;-69
2022/10/11 04:16:12;;;;;;;7.15;4.18;;;;;;;4.01;100.00;102489.66;5058431;28;20039;-69
2022/10/11 04:18:37;;;;;;;5.93;3.63;;;;;;;3.89;100.00;102493.31;5054793;28;20044;-69
2022/10/11 04:21:03;;;;;;;6.35;3.75;;;;;;;4.11;100.00;102495.72;5041790;28;20040;-70
2022/10/11 04:23:32;;;;;;;7.50;4.63;;;;;;;4.25;100.00;102495.59;5060335;28;20032;-70
2022/10/11 04:25:57;;;;;;;13.70;4.75;;;;;;;4.24;100.00;102496.50;5059103;28;20060;-68
2022/10/11 04:28:23;;;;;;;11.65;4.78;;;;;;;4.04;100.00;102501.97;5036610;28;20140;-70
2022/10/11 04:30:50;;;;;;;13.35;4.00;;;;;;;4.03;100.00;102502.88;5040514;28;20047;-69
2022/10/11 04:33:15;;;;;;;12.30;5.03;;;;;;;4.14;100.00;102503.63;5052951;28;20044;-69
2022/10/11 04:35:40;;;;;;;8.27;4.45;;;;;;;4.03;100.00;102510.78;5059395;28;20032;-69
2022/10/11 04:38:06;;;;;;;7.22;3.63;;;;;;;4.09;100.00;102508.97;5032959;28;20071;-70
2022/10/11 04:40:32;;;;;;;5.90;4.45;;;;;;;4.27;100.00;102504.41;5058017;28;20036;-70
2022/10/11 04:42:57;;;;;;;11.30;4.57;;;;;;;4.37;100.00;102504.28;5033924;28;20032;-69
2022/10/11 04:45:23;;;;;;;14.32;5.53;;;;;;;4.48;100.00;102503.28;5053920;28;20048;-69
2022/10/11 04:47:48;;;;;;;10.05;5.20;;;;;;;4.33;100.00;102506.97;5041787;28;20056;-69
2022/10/11 04:50:14;;;;;;;9.32;3.75;;;;;;;3.97;100.00;102509.09;5038308;28;20048;-70
2022/10/11 04:52:39;;;;;;;6.90;3.60;;;;;;;4.19;100.00;102516.78;5057020;28;20032;-69
2022/10/11 04:55:05;;;;;;;10.65;4.57;;;;;;;4.24;100.00;102522.91;5057014;28;20508;-69
2022/10/11 04:57:31;;;;;;;17.48;5.55;;;;;;;4.43;100.00;102520.94;5058424;28;20768;-70
2022/10/11 04:59:56;;;;;;;10.48;4.90;;;;;;;4.30;100.00;102517.56;5059662;28;20085;-69
2022/10/11 05:02:21;;;;;;;27.15;5.35;;;;;;;4.11;100.00;102517.72;5041060;28;20040;-69
2022/10/11 05:04:47;;;;;;;7.18;3.92;;;;;;;4.07;100.00;102516.03;5057995;28;20035;-69
2022/10/11 05:07:12;;;;;;;12.00;4.60;;;;;;;4.18;100.00;102518.56;5033790;28;20044;-70
2022/10/11 05:09:38;;;;;;;7.63;4.72;;;;;;;4.21;100.00;102517.63;5059461;28;20130;-69
2022/10/11 05:12:03;;;;;;;12.07;5.15;;;;;;;4.36;100.00;102520.13;5057409;28;20469;-71
2022/10/11 05:14:29;;;;;;;13.90;5.78;;;;;;;4.47;100.00;102522.63;5033178;28;20040;-70
2022/10/11 05:16:54;;;;;;;20.10;6.90;;;;;;;4.47;100.00;102525.28;5058146;28;20032;-71
2022/10/11 05:19:20;;;;;;;8.50;5.47;;;;;;;4.24;100.00;102530.81;5058294;28;20109;-70
2022/10/11 05:21:45;;;;;;;10.60;5.63;;;;;;;4.19;100.00;102530.88;5040110;28;20406;-71
2022/10/11 05:24:11;;;;;;;14.10;5.95;;;;;;;4.23;100.00;102527.31;5053724;28;20452;-69
2022/10/11 05:26:36;;;;;;;16.95;6.60;;;;;;;4.26;100.00;102529.03;5059155;28;20047;-69
2022/10/11 05:29:02;;;;;;;7.75;4.65;;;;;;;3.85;100.00;102528.50;5053459;28;20056;-71
2022/10/11 05:31:27;;;;;;;11.07;5.00;;;;;;;3.90;100.00;102531.13;5051232;28;20045;-71
2022/10/11 05:33:53;;;;;;;12.32;5.45;;;;;;;4.00;100.00;102532.78;5059242;28;20044;-69
2022/10/11 05:36:18;;;;;;;12.68;6.88;;;;;;;4.05;100.00;102532.75;5058774;28;20036;-70
2022/10/11 05:38:44;;;;;;;11.55;6.63;;;;;;;4.20;100.00;102535.25;5055972;28;20037;-71
2022/10/11 05:41:12;;;;;;;14.20;6.20;;;;;;;4.19;100.00;102533.50;5058592;28;20794;-70
2022/10/11 05:43:38;;;;;;;22.48;7.50;;;;;;;4.13;100.00;102531.81;5040079;28;20143;-69
2022/10/11 05:46:03;;;;;;;10.30;5.28;;;;;;;3.81;100.00;102539.09;5053796;28;20089;-68
2022/10/11 05:48:29;;;;;;;5.93;4.53;;;;;;;3.74;100.00;102546.22;5038128;28;20083;-71
2022/10/11 05:50:59;;;;;;;9.90;3.85;;;;;;;3.80;100.00;102550.56;5061803;28;20052;-70
2022/10/11 05:53:25;;;;;;;10.85;6.05;;;;;;;4.02;100.00;102546.88;5054678;28;20499;-68
2022/10/11 05:55:51;;;;;;;20.75;7.53;;;;;;;4.07;100.00;102552.97;5058926;28;20801;-70
2022/10/11 05:58:17;;;;;;;12.55;6.07;;;;;;;4.06;100.00;102547.69;5058572;28;20037;-69
2022/10/11 06:00:43;;;;;;;11.60;6.00;;;;;;;4.05;100.00;102546.81;5056208;28;20060;-69
2022/10/11 06:03:10;;;;;;;12.73;6.00;;;;;;;4.14;100.00;102546.75;5058257;28;20033;-71
2022/10/11 06:05:36;;;;;;;9.98;5.40;;;;;;;4.09;100.00;102556.47;5054955;28;20147;-70
2022/10/11 06:08:03;;;;;;;11.57;6.72;;;;;;;4.19;100.00;102556.41;5056022;28;20049;-69
2022/10/11 06:10:28;;;;;;;13.05;6.93;;;;;;;4.29;100.00;102550.13;5055552;28;20043;-70
2022/10/11 06:12:54;;;;;;;14.00;6.30;;;;;;;4.19;100.00;102554.63;5061491;28;20041;-71
2022/10/11 06:15:19;;;;;;;10.80;7.00;;;;;;;4.26;100.00;102556.31;5062611;28;20036;-70
2022/10/11 06:17:46;;;;;;;15.75;6.35;;;;;;;4.35;100.00;102563.28;5057951;28;20048;-71
2022/10/11 06:20:11;;;;;;;14.75;8.02;;;;;;;4.40;100.00;102570.25;5054262;28;20029;-68
2022/10/11 06:22:37;;;;;;;16.83;6.82;;;;;;;4.46;100.00;102560.53;5043881;28;20515;-70
2022/10/11 06:25:02;;;;;;;17.92;6.20;;;;;;;4.37;100.00;102565.03;5059886;28;20154;-71
2022/10/11 06:27:28;;;;;;;8.32;4.93;;;;;;;4.44;100.00;102571.09;5062699;28;20045;-71
2022/10/11 06:29:53;;;;;;;17.30;6.50;;;;;;;4.65;100.00;102575.28;5039771;28;20691;-71
2022/10/11 06:32:19;;;;;;;21.27;7.43;;;;;;;4.75;100.00;102579.56;5061224;28;20041;-70
2022/10/11 06:34:44;;;;;;;16.75;7.68;;;;;;;4.87;100.00;102578.56;5062129;28;20334;-70
2022/10/11 06:37:10;;;;;;;10.07;5.95;;;;;;;4.76;100.00;102586.59;5061225;28;20055;-71
2022/10/11 06:39:35;;;;;;;10.70;5.78;;;;;;;4.92;100.00;102589.97;5043850;28;20461;-71
2022/10/11 06:42:01;;;;;;;10.20;5.90;;;;;;;4.97;100.00;102587.25;5024845;28;20041;-71
2022/10/11 06:44:26;;;;;;;12.32;5.43;;;;;;;5.25;100.00;102593.94;5058094;28;20037;-71
2022/10/11 06:46:52;;;;;;;9.10;5.05;;;;;;;5.49;100.00;102600.69;5055758;28;20064;-70
2022/10/11 06:49:17;;;;;;;15.38;5.30;;;;;;;5.83;100.00;102592.28;5061247;28;20106;-69
2022/10/11 06:51:42;;;;;;;7.82;4.93;;;;;;;5.78;100.00;102604.69;5037540;28;20040;-70
2022/10/11 06:54:08;;;;;;;5.40;3.92;;;;;;;6.05;100.00;102603.41;5061643;28;20637;-70
2022/10/11 06:56:34;;;;;;;6.97;5.13;;;;;;;6.39;100.00;102601.94;5026591;28;20534;-71
2022/10/11 06:58:59;;;;;;;8.38;4.25;;;;;;;6.46;100.00;102603.56;5061587;28;20712;-71
2022/10/11 07:01:26;;;;;;;8.70;5.22;;;;;;;7.19;100.00;102597.75;5035132;28;20472;-70
2022/10/11 07:03:53;;;;;;;12.75;5.45;;;;;;;7.41;100.00;102598.16;5041460;28;20040;-71
2022/10/11 07:06:24;;;;;;;10.95;6.10;;;;;;;7.50;100.00;102609.47;5061082;28;20040;-70
2022/10/11 07:08:51;;;;;;;10.43;5.95;;;;;;;8.27;100.00;102602.31;5055361;28;20539;-71
2022/10/11 07:11:22;;;;;;;9.23;4.97;;;;;;;8.53;100.00;102606.97;5060339;28;20681;-71
2022/10/11 07:13:56;;;;;;;12.00;5.53;;;;;;;9.14;100.00;102607.97;5060913;28;20044;-69
2022/10/11 07:16:22;;;;;;;10.45;5.70;;;;;;;9.52;100.00;102608.59;5059972;28;20051;-70
2022/10/11 07:18:52;;;;;;;15.20;6.43;;;;;;;9.77;100.00;102606.91;5061379;28;20040;-71
2022/10/11 07:21:17;;;;;;;10.52;5.78;;;;;;;9.54;100.00;102607.66;5061189;28;20850;-70
2022/10/11 07:23:43;;;;;;;13.55;6.10;;;;;;;9.91;100.00;102605.63;5060983;28;20044;-70
2022/10/11 07:26:09;;;;;;;12.75;5.47;;;;;;;10.19;100.00;102616.22;5042001;28;20060;-72
2022/10/11 07:28:36;;;;;;;12.82;5.13;;;;;;;9.88;100.00;102616.38;5060890;28;20071;-70
2022/10/11 07:31:06;;;;;;;12.80;5.57;;;;;;;10.32;100.00;102614.94;5036538;28;20036;-71
2022/10/11 07:33:31;;;;;;;14.45;6.03;;;;;;;10.52;100.00;102620.47;5059573;28;20072;-69
2022/10/11 07:35:57;;;;;;;18.73;5.82;;;;;;;10.06;100.00;102619.31;5055314;28;20040;-70
2022/10/11 07:38:22;;;;;;;11.80;5.80;;;;;;;10.27;100.00;102625.75;5054696;28;20584;-70
2022/10/11 07:40:48;;;;;;;12.40;6.22;;;;;;;10.22;100.00;102626.81;5055373;28;20167;-71
2022/10/11 07:43:13;;;;;;;11.73;5.70;;;;;;;10.44;100.00;102621.66;5050156;28;20049;-70
2022/10/11 07:45:40;;;;;;;16.35;5.50;;;;;;;10.32;100.00;102626.47;5060504;28;20037;-70
2022/10/11 07:48:06;;;;;;;13.13;5.20;;;;;;;10.06;100.00;102629.09;5047491;28;20041;-71
2022/10/11 07:50:32;;;;;;;21.10;6.78;;;;;;;10.11;100.00;102619.16;5033731;28;20032;-70
2022/10/11 07:52:58;;;;;;;15.50;5.63;;;;;;;10.17;100.00;102629.63;5040106;28;20036;-70
2022/10/11 07:55:26;;;;;;;17.02;6.25;;;;;;;10.32;100.00;102628.28;5033777;28;20746;-69
2022/10/11 07:57:53;;;;;;;13.65;7.10;;;;;;;10.62;100.00;102634.34;5058827;28;20835;-71
2022/10/11 08:00:19;;;;;;;17.05;6.22;;;;;;;10.32;100.00;102642.47;5053318;28;20032;-71
2022/10/11 08:02:44;;;;;;;13.45;6.05;;;;;;;10.51;100.00;102639.19;5058205;28;20539;-72
2022/10/11 08:05:09;;;;;;;15.85;6.47;;;;;;;10.71;100.00;102631.38;5057421;28;20068;-71
2022/10/11 08:07:35;;;;;;;23.05;6.35;;;;;;;10.88;100.00;102639.63;5040702;28;20040;-71
2022/10/11 08:10:00;;;;;;;18.63;7.15;;;;;;;10.84;100.00;102639.81;5059492;28;20848;-71
2022/10/11 08:12:26;;;;;;;18.20;6.82;;;;;;;10.93;100.00;102638.59;5051930;28;20046;-70
2022/10/11 08:14:54;;;;;;;20.02;6.93;;;;;;;10.91;100.00;102636.00;5036467;28;20032;-71
2022/10/11 08:17:19;;;;;;;24.52;8.07;;;;;;;10.85;100.00;102636.22;5055260;28;20508;-68
2022/10/11 08:19:44;;;;;;;18.67;5.93;;;;;;;11.07;100.00;102642.53;5040940;28;20032;-71
2022/10/11 08:22:10;;;;;;;18.52;7.20;;;;;;;11.10;100.00;102644.22;5058560;28;20709;-70
2022/10/11 08:24:35;;;;;;;16.90;6.95;;;;;;;11.29;100.00;102647.06;5058882;28;20515;-70
2022/10/11 08:27:01;;;;;;;12.93;5.82;;;;;;;11.54;100.00;102644.34;5057239;28;20397;-71
2022/10/11 08:29:26;;;;;;;16.10;6.07;;;;;;;11.65;100.00;102637.66;5048358;28;20888;-70
2022/10/11 08:31:52;;;;;;;15.02;6.20;;;;;;;11.90;100.00;102644.75;5059635;28;20044;-69
2022/10/11 08:34:17;;;;;;;16.40;5.65;;;;;;;11.96;100.00;102652.53;5057136;28;20048;-70
2022/10/11 08:36:42;;;;;;;13.55;6.07;;;;;;;11.95;100.00;102656.13;5060081;28;20062;-70
2022/10/11 08:39:08;;;;;;;10.13;5.78;;;;;;;11.84;100.00;102658.34;5058860;28;20432;-71
2022/10/11 08:41:52;;;;;;;28.60;6.07;;;;;;;12.09;100.00;102651.06;5059334;28;20894;-68
2022/10/11 08:44:36;;;;;;;17.00;5.38;;;;;;;11.84;100.00;102653.84;5029253;28;20072;-68
2022/10/11 08:47:09;;;;;;;15.63;5.43;;;;;;;11.85;100.00;102652.94;5043940;28;20037;-69
2022/10/11 08:49:35;;;;;;;12.88;4.63;;;;;;;11.80;100.00;102659.38;5058452;28;20044;-71
2022/10/11 08:52:13;;;;;;;15.98;5.07;;;;;;;11.80;100.00;102652.22;5052741;28;20535;-70
2022/10/11 08:54:52;;;;;;;15.90;5.22;;;;;;;12.01;100.00;102657.69;5056832;28;20679;-69
2022/10/11 08:57:21;;;;;;;15.57;5.53;;;;;;;12.25;100.00;102655.78;5051864;28;20041;-69
2022/10/11 08:59:59;;;;;;;17.08;4.60;;;;;;;12.26;100.00;102654.88;5056314;28;20036;-70
2022/10/11 09:02:34;;;;;;;16.60;5.38;;;;;;;12.35;100.00;102659.81;5043392;28;20097;-69
2022/10/11 09:05:02;;;;;;;13.20;4.85;;;;;;;12.71;100.00;102657.41;5036504;28;20055;-68
2022/10/11 09:08:01;;;;;;;21.73;4.47;;;;;;;12.65;100.00;102658.56;5050009;28;20048;-69
2022/10/11 09:10:54;;;;;;;19.88;5.07;;;;;;;12.60;100.00;102657.88;5052602;28;20043;-70
2022/10/11 09:13:45;;;;;;;14.55;4.57;;;;;;;12.80;100.00;102651.66;5054593;28;20040;-68
2022/10/11 09:16:10;;;;;;;14.00;4.10;;;;;;;12.82;100.00;102656.94;5053006;28;20037;-68
2022/10/11 09:18:55;;;;;;;19.27;4.65;;;;;;;12.84;100.00;102660.41;5053019;28;20953;-69
2022/10/11 09:21:40;;;;;;;14.98;4.10;;;;;;;13.09;100.00;102661.06;5035706;28;20079;-67
2022/10/11 09:24:44;;;;;;;15.20;4.63;;;;;;;12.98;100.00;102662.50;5058401;28;20041;-65
2022/10/11 09:27:35;;;;;;;9.25;4.15;;;;;;;13.19;100.00;102662.41;4979132;28;20116;-69
2022/10/11 09:30:16;;;;;;;17.92;3.60;;;;;;;13.03;96.62;102669.38;4979419;28;20053;-67
2022/10/11 09:32:46;;;;;;;13.45;3.97;;;;;;;13.11;98.28;102661.88;4978300;28;20060;-69
2022/10/11 09:35:14;;;;;;;16.52;3.65;;;;;;;13.22;99.52;102661.44;4991688;28;20045;-69
2022/10/11 09:37:56;;;;;;;18.35;3.65;;;;;;;13.31;99.58;102660.16;4986305;28;20057;-69
2022/10/11 09:40:39;;;;;;;16.57;4.37;;;;;;;13.49;95.40;102667.31;4976457;28;20060;-69
2022/10/11 09:43:04;;;;;;;16.08;4.28;;;;;;;13.66;98.08;102669.25;4999329;28;20134;-69
2022/10/11 09:45:30;;;;;;;10.93;3.58;;;;;;;13.71;97.21;102670.75;4999478;28;20133;-70
2022/10/11 09:47:58;;;;;;;8.20;3.45;;;;;;;13.69;98.02;102667.25;4999189;28;20082;-69
2022/10/11 09:50:27;;;;;;;14.07;3.95;;;;;;;13.84;97.06;102667.47;4999112;28;20375;-69
2022/10/11 09:53:02;;;;;;;13.98;3.08;;;;;;;13.86;92.42;102677.22;4979811;28;20049;-69
2022/10/11 09:55:32;;;;;;;15.30;3.97;;;;;;;14.07;94.82;102672.63;4998552;28;20053;-69
2022/10/11 09:57:57;;;;;;;13.95;3.05;;;;;;;14.22;93.97;102671.00;4998414;28;20050;-69
2022/10/11 10:00:26;;;;;;;18.95;3.50;;;;;;;13.81;95.72;102676.56;4998837;28;20455;-70
2022/10/11 10:02:53;;;;;;;14.75;3.53;;;;;;;14.00;93.47;102676.53;4998993;28;20046;-69
2022/10/11 10:05:22;;;;;;;10.52;3.28;;;;;;;13.95;92.61;102668.69;5036990;28;20047;-68
2022/10/11 10:08:00;;;;;;;12.18;3.78;;;;;;;14.15;94.13;102673.09;5043999;28;20048;-68
2022/10/11 10:10:51;;;;;;;14.27;3.35;;;;;;;14.41;93.05;102670.97;5055501;28;20033;-70
2022/10/11 10:13:20;;;;;;;22.85;3.20;;;;;;;14.67;89.01;102667.84;5054431;28;20127;-68
2022/10/11 10:15:49;;;;;;;17.48;4.18;;;;;;;14.62;85.65;102675.25;5058266;28;20058;-69
2022/10/11 10:18:28;;;;;;;11.98;3.97;;;;;;;14.46;87.21;102668.91;5040515;28;20063;-70
2022/10/11 10:20:58;;;;;;;9.82;2.30;;;;;;;14.47;82.66;102663.50;5052469;28;20044;-68
2022/10/11 10:23:28;;;;;;;9.77;2.90;;;;;;;14.76;84.25;102670.06;5057239;28;20043;-67
2022/10/11 10:26:09;;;;;;;10.18;2.38;;;;;;;14.70;83.53;102669.47;5032289;28;20068;-68
2022/10/11 10:28:34;;;;;;;13.65;2.95;;;;;;;14.87;83.80;102668.63;5059261;28;20051;-69
2022/10/11 10:31:00;;;;;;;20.83;2.70;;;;;;;14.82;77.95;102663.50;5060145;28;20044;-70
2022/10/11 10:33:34;;;;;;;9.27;2.00;;;;;;;14.83;76.06;102667.06;5042230;28;20037;-70
2022/10/11 10:36:06;;;;;;;10.05;2.25;;;;;;;14.85;78.41;102673.19;5054623;28;20033;-70
2022/10/11 10:38:50;;;;;;;15.27;3.20;;;;;;;14.67;80.81;102667.84;5050705;28;20068;-71
2022/10/11 10:41:17;;;;;;;11.90;3.15;;;;;;;14.74;79.70;102661.19;5058339;28;20036;-71
2022/10/11 10:43:54;;;;;;;17.38;2.30;;;;;;;14.93;77.71;102666.47;5056647;28;20036;-71
2022/10/11 10:46:44;;;;;;;13.15;2.05;;;;;;;14.91;76.42;102665.72;5042448;28;20429;-70
2022/10/11 10:49:24;;;;;;;15.00;3.20;;;;;;;14.73;75.87;102667.53;5060335;28;20032;-71
2022/10/11 10:52:02;;;;;;;11.00;2.17;;;;;;;15.01;75.59;102660.72;5037766;28;20040;-71
2022/10/11 10:54:36;;;;;;;10.10;1.77;;;;;;;14.85;75.94;102657.94;5058934;28;20067;-71
2022/10/11 10:57:18;;;;;;;6.40;1.60;;;;;;;14.93;75.74;102662.94;5061049;28;20036;-69
2022/10/11 11:00:16;;;;;;;11.20;2.20;;;;;;;14.85;77.45;102663.31;5058675;28;20048;-69
2022/10/11 11:03:02;;;;;;;15.32;2.58;;;;;;;15.00;75.02;102661.66;5016639;28;20049;-70
2022/10/11 11:05:56;;;;;;;16.95;2.90;;;;;;;15.19;73.51;102659.72;5057878;28;20047;-69
2022/10/11 11:08:51;;;;;;;8.85;2.80;;;;;;;15.33;71.25;102661.66;5049701;28;20642;-69
2022/10/11 11:11:54;;;;;;;11.00;2.30;;;;;;;15.47;70.96;102655.56;5054299;28;20079;-71
2022/10/11 11:14:33;;;;;;;10.27;2.17;;;;;;;14.99;75.06;102654.53;5027697;28;20036;-71
2022/10/11 11:17:10;;;;;;;7.53;2.47;;;;;;;15.12;73.98;102657.47;5059347;28;20043;-70
2022/10/11 11:19:52;;;;;;;7.65;1.73;;;;;;;15.27;73.32;102648.56;5040895;28;20044;-71
2022/10/11 11:22:37;;;;;;;13.52;2.95;;;;;;;15.15;69.21;102647.38;5054108;28;20512;-71
2022/10/11 11:25:21;;;;;;;10.48;2.13;;;;;;;15.57;70.26;102640.66;5056575;28;20033;-71
2022/10/11 11:27:52;;;;;;;10.77;2.55;;;;;;;15.53;73.92;102633.69;5040169;28;20121;-70
2022/10/11 11:30:24;;;;;;;10.38;2.10;;;;;;;15.79;72.82;102633.13;5058768;28;20033;-71
2022/10/11 11:33:07;;;;;;;11.57;1.73;;;;;;;15.65;69.60;102627.66;5055102;28;20843;-70